createdAt,value
2023-04-22T00:00:05.073Z,9.70
2023-04-22T00:01:07.041Z,9.62
2023-04-22T00:02:09.121Z,9.62
2023-04-22T00:03:11.102Z,9.57
2023-04-22T00:04:13.393Z,9.56
2023-04-22T00:05:17.989Z,9.64
2023-04-22T00:06:22.030Z,9.59
2023-04-22T00:07:23.858Z,9.60
2023-04-22T00:08:25.898Z,9.62
2023-04-22T00:09:27.727Z,9.64
2023-04-22T00:10:29.482Z,9.66
2023-04-22T00:11:31.284Z,9.69
2023-04-22T00:12:33.083Z,9.70
2023-04-22T00:13:35.057Z,9.56
2023-04-22T00:14:36.913Z,9.51
2023-04-22T00:15:38.991Z,9.52
2023-04-22T00:16:40.904Z,9.52
2023-04-22T00:17:43.009Z,9.51
2023-04-22T00:18:44.913Z,9.49
2023-04-22T00:19:46.733Z,9.46
2023-04-22T00:20:49.538Z,9.39
2023-04-22T00:21:51.289Z,9.38
2023-04-22T00:22:53.041Z,9.34
2023-04-22T00:23:54.873Z,9.36
2023-04-22T00:24:56.700Z,9.38
2023-04-22T00:25:58.499Z,9.34
2023-04-22T00:27:01.292Z,9.35
2023-04-22T00:28:03.124Z,9.37
2023-04-22T00:29:05.036Z,9.44
2023-04-22T00:30:07.182Z,9.48
2023-04-22T00:31:08.976Z,9.54
2023-04-22T00:32:11.089Z,9.54
2023-04-22T00:33:12.957Z,9.48
2023-04-22T00:34:14.746Z,9.49
2023-04-22T00:35:16.650Z,9.50
2023-04-22T00:36:18.371Z,9.49
2023-04-22T00:37:20.138Z,9.46
2023-04-22T00:38:22.137Z,9.47
2023-04-22T00:39:23.878Z,9.45
2023-04-22T00:40:26.313Z,9.38
2023-04-22T00:41:28.269Z,9.37
2023-04-22T00:42:30.568Z,9.41
2023-04-22T00:43:32.383Z,9.45
2023-04-22T00:44:34.225Z,9.43
2023-04-22T00:45:37.143Z,9.30
2023-04-22T00:46:39.998Z,9.30
2023-04-22T00:47:42.144Z,9.25
2023-04-22T00:48:43.953Z,9.11
2023-04-22T00:49:46.151Z,9.08
2023-04-22T00:50:47.902Z,9.12
2023-04-22T00:51:49.680Z,9.14
2023-04-22T00:52:51.565Z,9.18
2023-04-22T00:53:53.296Z,9.19
2023-04-22T00:54:55.277Z,9.23
2023-04-22T00:55:58.356Z,9.18
2023-04-22T00:57:00.265Z,9.09
2023-04-22T00:58:03.276Z,9.11
2023-04-22T00:59:05.141Z,9.12
2023-04-22T01:00:07.296Z,9.07
2023-04-22T01:01:09.720Z,9.02
2023-04-22T01:02:12.098Z,9.01
2023-04-22T01:03:14.522Z,8.97
2023-04-22T01:04:16.587Z,8.94
2023-04-22T01:05:18.565Z,8.93
2023-04-22T01:06:20.638Z,8.87
2023-04-22T01:07:22.420Z,8.85
2023-04-22T01:08:29.424Z,8.80
2023-04-22T01:09:31.239Z,8.78
2023-04-22T01:10:33.157Z,8.82
2023-04-22T01:11:36.252Z,8.81
2023-04-22T01:12:37.964Z,8.85
2023-04-22T01:13:39.768Z,8.78
2023-04-22T01:14:41.868Z,8.79
2023-04-22T01:15:43.666Z,8.80
2023-04-22T01:16:45.691Z,8.82
2023-04-22T01:17:48.296Z,8.80
2023-04-22T01:18:50.211Z,8.77
2023-04-22T01:19:53.067Z,8.76
2023-04-22T01:20:54.912Z,8.82
2023-04-22T01:21:57.341Z,8.85
2023-04-22T01:23:03.363Z,8.81
2023-04-22T01:24:05.379Z,8.76
2023-04-22T01:25:07.384Z,8.80
2023-04-22T01:26:09.222Z,8.81
2023-04-22T01:27:12.015Z,8.85
2023-04-22T01:28:14.329Z,8.83
2023-04-22T01:29:16.334Z,8.87
2023-04-22T01:30:18.156Z,8.87
2023-04-22T01:31:20.340Z,8.85
2023-04-22T01:32:22.249Z,8.85
2023-04-22T01:33:24.267Z,8.82
2023-04-22T01:34:26.725Z,8.79
2023-04-22T01:35:30.468Z,8.70
2023-04-22T01:36:32.989Z,8.67
2023-04-22T01:37:35.059Z,8.72
2023-04-22T01:38:36.942Z,8.77
2023-04-22T01:39:39.018Z,8.81
2023-04-22T01:40:41.284Z,8.84
2023-04-22T01:41:43.010Z,8.81
2023-04-22T01:42:44.900Z,8.76
2023-04-22T01:43:46.903Z,8.71
2023-04-22T01:44:48.738Z,8.76
2023-04-22T01:45:50.544Z,8.76
2023-04-22T01:46:52.332Z,8.74
2023-04-22T01:47:54.863Z,8.67
2023-04-22T01:48:56.696Z,8.69
2023-04-22T01:49:58.565Z,8.74
2023-04-22T01:51:00.444Z,8.67
2023-04-22T01:52:02.214Z,8.64
2023-04-22T01:53:04.223Z,8.67
2023-04-22T01:54:06.157Z,8.71
2023-04-22T01:55:08.556Z,8.72
2023-04-22T01:56:10.362Z,8.63
2023-04-22T01:57:14.544Z,8.53
2023-04-22T01:58:16.427Z,8.47
2023-04-22T01:59:18.219Z,8.50
2023-04-22T02:00:19.972Z,8.52
2023-04-22T02:01:21.869Z,8.46
2023-04-22T02:02:23.852Z,8.51
2023-04-22T02:03:25.897Z,8.58
2023-04-22T02:04:27.977Z,8.60
2023-04-22T02:05:29.911Z,8.56
2023-04-22T02:06:32.591Z,8.61
2023-04-22T02:07:34.457Z,8.61
2023-04-22T02:08:36.402Z,8.52
2023-04-22T02:09:38.250Z,8.51
2023-04-22T02:10:41.434Z,8.52
2023-04-22T02:11:43.181Z,8.53
2023-04-22T02:12:45.001Z,8.60
2023-04-22T02:13:46.745Z,8.64
2023-04-22T02:14:48.512Z,8.64
2023-04-22T02:15:52.509Z,8.53
2023-04-22T02:16:54.628Z,8.51
2023-04-22T02:17:56.397Z,8.49
2023-04-22T02:18:58.334Z,8.43
2023-04-22T02:20:00.221Z,8.46
2023-04-22T02:21:02.614Z,8.49
2023-04-22T02:22:04.610Z,8.43
2023-04-22T02:23:06.771Z,8.39
2023-04-22T02:24:08.656Z,8.37
2023-04-22T02:25:12.604Z,8.35
2023-04-22T02:26:14.383Z,8.37
2023-04-22T02:27:16.156Z,8.35
2023-04-22T02:28:18.332Z,8.36
2023-04-22T02:29:20.174Z,8.42
2023-04-22T02:30:23.506Z,8.46
2023-04-22T02:31:25.537Z,8.50
2023-04-22T02:32:27.444Z,8.43
2023-04-22T02:33:29.293Z,8.33
2023-04-22T02:34:31.187Z,8.34
2023-04-22T02:35:33.515Z,8.33
2023-04-22T02:36:35.299Z,8.28
2023-04-22T02:37:37.113Z,8.32
2023-04-22T02:38:38.831Z,8.26
2023-04-22T02:39:40.951Z,8.28
2023-04-22T02:40:43.094Z,8.30
2023-04-22T02:41:44.857Z,8.20
2023-04-22T02:42:48.729Z,8.18
2023-04-22T02:43:50.530Z,8.16
2023-04-22T02:44:52.302Z,8.14
2023-04-22T02:45:54.557Z,8.15
2023-04-22T02:46:56.556Z,8.17
2023-04-22T02:47:58.629Z,8.17
2023-04-22T02:49:00.462Z,8.12
2023-04-22T02:50:02.220Z,8.11
2023-04-22T02:51:04.182Z,8.09
2023-04-22T02:52:06.015Z,8.10
2023-04-22T02:53:08.534Z,8.15
2023-04-22T02:54:10.313Z,8.18
2023-04-22T02:55:12.182Z,8.15
2023-04-22T02:56:14.005Z,8.12
2023-04-22T02:57:15.824Z,8.14
2023-04-22T02:58:17.759Z,8.16
2023-04-22T02:59:19.549Z,8.20
2023-04-22T03:00:21.390Z,8.15
2023-04-22T03:01:23.439Z,7.99
2023-04-22T03:02:25.535Z,8.02
2023-04-22T03:03:27.832Z,8.02
2023-04-22T03:04:29.909Z,8.02
2023-04-22T03:05:31.747Z,8.06
2023-04-22T03:06:33.584Z,7.99
2023-04-22T03:07:35.321Z,7.99
2023-04-22T03:08:37.117Z,8.06
2023-04-22T03:09:39.007Z,8.08
2023-04-22T03:10:41.252Z,8.07
2023-04-22T03:11:43.172Z,8.08
2023-04-22T03:12:44.980Z,8.09
2023-04-22T03:13:46.836Z,8.02
2023-04-22T03:14:48.783Z,8.04
2023-04-22T03:15:50.648Z,8.06
2023-04-22T03:16:53.676Z,8.05
2023-04-22T03:17:55.611Z,8.04
2023-04-22T03:18:57.369Z,8.03
2023-04-22T03:19:59.250Z,8.07
2023-04-22T03:21:01.307Z,8.06
2023-04-22T03:22:04.549Z,8.00
2023-04-22T03:23:07.882Z,7.92
2023-04-22T03:24:09.640Z,7.93
2023-04-22T03:25:11.651Z,7.89
2023-04-22T03:26:13.999Z,7.89
2023-04-22T03:27:15.948Z,7.91
2023-04-22T03:28:17.656Z,7.95
2023-04-22T03:29:19.405Z,7.96
2023-04-22T03:30:21.378Z,7.93
2023-04-22T03:31:23.258Z,7.94
2023-04-22T03:32:25.218Z,7.92
2023-04-22T03:33:27.692Z,7.86
2023-04-22T03:34:29.485Z,7.77
2023-04-22T03:35:31.361Z,7.69
2023-04-22T03:36:33.228Z,7.67
2023-04-22T03:37:36.603Z,7.68
2023-04-22T03:38:38.422Z,7.68
2023-04-22T03:39:41.862Z,7.67
2023-04-22T03:40:43.987Z,7.66
2023-04-22T03:41:45.791Z,7.65
2023-04-22T03:42:47.575Z,7.68
2023-04-22T03:43:50.015Z,7.65
2023-04-22T03:44:51.893Z,7.59
2023-04-22T03:45:53.821Z,7.57
2023-04-22T03:46:55.697Z,7.58
2023-04-22T03:47:58.018Z,7.62
2023-04-22T03:48:59.877Z,7.61
2023-04-22T03:50:01.649Z,7.60
2023-04-22T03:51:03.751Z,7.67
2023-04-22T03:52:05.637Z,7.69
2023-04-22T03:53:07.848Z,7.64
2023-04-22T03:54:09.658Z,7.66
2023-04-22T03:55:11.514Z,7.60
2023-04-22T03:56:13.327Z,7.54
2023-04-22T03:57:15.132Z,7.52
2023-04-22T03:58:16.950Z,7.46
2023-04-22T03:59:18.963Z,7.47
2023-04-22T04:00:20.768Z,7.52
2023-04-22T04:01:23.827Z,7.51
2023-04-22T04:02:25.753Z,7.50
2023-04-22T04:03:30.305Z,7.51
2023-04-22T04:04:33.885Z,7.50
2023-04-22T04:05:36.076Z,7.45
2023-04-22T04:06:37.920Z,7.42
2023-04-22T04:07:39.833Z,7.47
2023-04-22T04:08:41.621Z,7.53
2023-04-22T04:09:44.685Z,7.51
2023-04-22T04:10:46.519Z,7.49
2023-04-22T04:11:48.269Z,7.46
2023-04-22T04:12:49.998Z,7.50
2023-04-22T04:13:51.839Z,7.47
2023-04-22T04:14:54.646Z,7.42
2023-04-22T04:15:56.506Z,7.36
2023-04-22T04:16:58.847Z,7.32
2023-04-22T04:18:01.974Z,7.34
2023-04-22T04:19:05.654Z,7.34
2023-04-22T04:20:07.835Z,7.29
2023-04-22T04:21:11.046Z,7.36
2023-04-22T04:22:12.920Z,7.39
2023-04-22T04:23:14.738Z,7.44
2023-04-22T04:24:16.677Z,7.45
2023-04-22T04:25:18.720Z,7.49
2023-04-22T04:26:20.718Z,7.54
2023-04-22T04:27:23.862Z,7.53
2023-04-22T04:28:25.698Z,7.53
2023-04-22T04:29:27.533Z,7.48
2023-04-22T04:30:31.061Z,7.48
2023-04-22T04:31:34.374Z,7.49
2023-04-22T04:32:37.003Z,7.45
2023-04-22T04:33:39.421Z,7.43
2023-04-22T04:34:42.597Z,7.43
2023-04-22T04:35:45.070Z,7.47
2023-04-22T04:36:47.017Z,7.45
2023-04-22T04:37:48.745Z,7.43
2023-04-22T04:38:52.053Z,7.47
2023-04-22T04:39:55.729Z,7.51
2023-04-22T04:40:58.263Z,7.47
2023-04-22T04:42:00.766Z,7.46
2023-04-22T04:43:02.779Z,7.47
2023-04-22T04:44:04.868Z,7.44
2023-04-22T04:45:07.887Z,7.47
2023-04-22T04:46:09.767Z,7.52
2023-04-22T04:47:13.597Z,7.55
2023-04-22T04:48:15.971Z,7.55
2023-04-22T04:49:18.102Z,7.53
2023-04-22T04:50:23.026Z,7.45
2023-04-22T04:51:24.816Z,7.40
2023-04-22T04:52:27.288Z,7.36
2023-04-22T04:53:29.107Z,7.38
2023-04-22T04:54:30.893Z,7.36
2023-04-22T04:55:32.724Z,7.32
2023-04-22T04:56:34.581Z,7.34
2023-04-22T04:57:38.398Z,7.39
2023-04-22T04:58:40.392Z,7.44
2023-04-22T04:59:42.359Z,7.44
2023-04-22T05:00:44.419Z,7.40
2023-04-22T05:01:46.377Z,7.41
2023-04-22T05:02:48.324Z,7.48
2023-04-22T05:03:50.403Z,7.52
2023-04-22T05:04:52.488Z,7.52
2023-04-22T05:05:54.538Z,7.55
2023-04-22T05:06:56.329Z,7.56
2023-04-22T05:07:58.132Z,7.44
2023-04-22T05:09:00.763Z,7.41
2023-04-22T05:10:02.796Z,7.48
2023-04-22T05:11:04.640Z,7.46
2023-04-22T05:12:06.438Z,7.46
2023-04-22T05:13:08.250Z,7.46
2023-04-22T05:14:10.715Z,7.51
2023-04-22T05:15:12.535Z,7.49
2023-04-22T05:16:14.374Z,7.47
2023-04-22T05:17:16.199Z,7.48
2023-04-22T05:18:18.155Z,7.53
2023-04-22T05:19:19.943Z,7.53
2023-04-22T05:20:21.792Z,7.57
2023-04-22T05:21:23.689Z,7.58
2023-04-22T05:22:25.444Z,7.60
2023-04-22T05:23:27.260Z,7.60
2023-04-22T05:24:29.146Z,7.66
2023-04-22T05:25:30.983Z,7.68
2023-04-22T05:26:32.818Z,7.63
2023-04-22T05:27:34.835Z,7.61
2023-04-22T05:28:36.670Z,7.65
2023-04-22T05:29:38.829Z,7.66
2023-04-22T05:30:40.735Z,7.69
2023-04-22T05:31:42.659Z,7.75
2023-04-22T05:32:44.643Z,7.76
2023-04-22T05:33:46.381Z,7.76
2023-04-22T05:34:48.132Z,7.77
2023-04-22T05:35:51.399Z,7.79
2023-04-22T05:36:53.157Z,7.83
2023-04-22T05:37:54.904Z,7.87
2023-04-22T05:38:56.669Z,7.87
2023-04-22T05:39:58.412Z,7.88
2023-04-22T05:41:00.206Z,7.89
2023-04-22T05:42:02.242Z,7.90
2023-04-22T05:43:04.061Z,7.91
2023-04-22T05:44:05.806Z,7.96
2023-04-22T05:45:08.050Z,7.99
2023-04-22T05:46:09.922Z,8.02
2023-04-22T05:47:11.656Z,8.05
2023-04-22T05:48:13.449Z,8.06
2023-04-22T05:49:15.334Z,8.07
2023-04-22T05:50:17.139Z,8.07
2023-04-22T05:51:19.018Z,8.10
2023-04-22T05:52:20.861Z,8.14
2023-04-22T05:53:22.700Z,8.20
2023-04-22T05:54:24.562Z,8.22
2023-04-22T05:55:27.156Z,8.23
2023-04-22T05:56:29.014Z,8.25
2023-04-22T05:57:31.694Z,8.29
2023-04-22T05:58:33.535Z,8.30
2023-04-22T05:59:35.369Z,8.32
2023-04-22T06:00:37.154Z,8.35
2023-04-22T06:01:39.088Z,8.38
2023-04-22T06:02:41.088Z,8.43
2023-04-22T06:03:43.610Z,8.47
2023-04-22T06:04:46.971Z,8.52
2023-04-22T06:05:49.214Z,8.60
2023-04-22T06:06:54.113Z,8.69
2023-04-22T06:07:55.913Z,8.76
2023-04-22T06:08:57.756Z,8.83
2023-04-22T06:10:04.722Z,8.87
2023-04-22T06:11:07.475Z,8.93
2023-04-22T06:12:09.279Z,8.98
2023-04-22T06:13:11.052Z,9.02
2023-04-22T06:14:13.402Z,9.08
2023-04-22T06:15:15.188Z,9.13
2023-04-22T06:16:17.853Z,9.19
2023-04-22T06:17:19.645Z,9.25
2023-04-22T06:18:21.449Z,9.32
2023-04-22T06:19:23.216Z,9.37
2023-04-22T06:20:25.017Z,9.44
2023-04-22T06:21:27.029Z,9.52
2023-04-22T06:22:28.838Z,9.60
2023-04-22T06:23:30.728Z,9.66
2023-04-22T06:24:32.531Z,9.70
2023-04-22T06:25:34.378Z,9.75
2023-04-22T06:26:37.021Z,9.82
2023-04-22T06:27:38.966Z,9.90
2023-04-22T06:28:41.005Z,9.97
2023-04-22T06:29:42.824Z,10.05
2023-04-22T06:30:44.618Z,10.09
2023-04-22T06:31:46.405Z,10.14
2023-04-22T06:32:48.241Z,10.20
2023-04-22T06:33:50.087Z,10.23
2023-04-22T06:34:51.911Z,10.30
2023-04-22T06:35:53.831Z,10.34
2023-04-22T06:36:55.662Z,10.37
2023-04-22T06:37:57.435Z,10.38
2023-04-22T06:39:00.865Z,10.43
2023-04-22T06:40:02.681Z,10.47
2023-04-22T06:41:04.475Z,10.52
2023-04-22T06:42:06.264Z,10.57
2023-04-22T06:43:08.036Z,10.65
2023-04-22T06:44:10.845Z,10.67
2023-04-22T06:45:13.253Z,10.73
2023-04-22T06:46:15.100Z,10.79
2023-04-22T06:47:16.893Z,10.87
2023-04-22T06:48:18.623Z,10.97
2023-04-22T06:49:21.870Z,11.05
2023-04-22T06:50:23.661Z,11.11
2023-04-22T06:51:25.511Z,11.19
2023-04-22T06:52:27.256Z,11.25
2023-04-22T06:53:29.027Z,11.31
2023-04-22T06:54:32.187Z,11.38
2023-04-22T06:55:34.010Z,11.46
2023-04-22T06:56:36.342Z,11.50
2023-04-22T06:57:38.170Z,11.54
2023-04-22T06:58:39.951Z,11.59
2023-04-22T06:59:44.489Z,11.65
2023-04-22T07:00:48.630Z,11.75
2023-04-22T07:01:50.400Z,11.81
2023-04-22T07:02:52.282Z,11.87
2023-04-22T07:03:54.198Z,11.95
2023-04-22T07:04:56.232Z,12.01
2023-04-22T07:05:58.020Z,12.09
2023-04-22T07:06:59.905Z,12.16
2023-04-22T07:08:01.678Z,12.28
2023-04-22T07:09:03.521Z,12.37
2023-04-22T07:10:06.281Z,12.44
2023-04-22T07:11:08.093Z,12.49
2023-04-22T07:12:09.835Z,12.57
2023-04-22T07:13:11.677Z,12.67
2023-04-22T07:14:13.461Z,12.71
2023-04-22T07:15:15.240Z,12.77
2023-04-22T07:16:17.134Z,12.83
2023-04-22T07:17:22.372Z,12.90
2023-04-22T07:18:24.139Z,12.99
2023-04-22T07:19:25.986Z,13.00
2023-04-22T07:20:27.853Z,13.06
2023-04-22T07:21:32.818Z,13.10
2023-04-22T07:22:34.589Z,13.14
2023-04-22T07:23:36.595Z,13.19
2023-04-22T07:24:39.217Z,13.24
2023-04-22T07:25:41.168Z,13.26
2023-04-22T07:26:43.657Z,13.32
2023-04-22T07:27:45.509Z,13.38
2023-04-22T07:28:47.448Z,13.39
2023-04-22T07:29:49.260Z,13.43
2023-04-22T07:30:51.226Z,13.49
2023-04-22T07:31:53.082Z,13.53
2023-04-22T07:32:55.730Z,13.62
2023-04-22T07:33:57.499Z,13.70
2023-04-22T07:34:59.321Z,13.73
2023-04-22T07:36:01.253Z,13.77
2023-04-22T07:37:03.110Z,13.79
2023-04-22T07:38:05.419Z,13.85
2023-04-22T07:39:08.225Z,13.92
2023-04-22T07:40:12.166Z,13.98
2023-04-22T07:41:14.220Z,14.03
2023-04-22T07:42:16.423Z,14.08
2023-04-22T07:43:18.285Z,14.12
2023-04-22T07:44:21.882Z,14.18
2023-04-22T07:45:23.657Z,14.26
2023-04-22T07:46:25.562Z,14.27
2023-04-22T07:47:27.676Z,14.33
2023-04-22T07:48:29.551Z,14.40
2023-04-22T07:49:31.371Z,14.45
2023-04-22T07:50:33.254Z,14.50
2023-04-22T07:51:35.059Z,14.54
2023-04-22T07:52:36.885Z,14.57
2023-04-22T07:53:38.620Z,14.63
2023-04-22T07:54:40.572Z,14.70
2023-04-22T07:55:42.439Z,14.71
2023-04-22T07:56:44.406Z,14.75
2023-04-22T07:57:46.236Z,14.78
2023-04-22T07:58:48.004Z,14.83
2023-04-22T07:59:50.026Z,14.91
2023-04-22T08:00:52.035Z,14.98
2023-04-22T08:01:54.032Z,15.03
2023-04-22T08:02:56.182Z,15.10
2023-04-22T08:03:58.359Z,15.17
2023-04-22T08:05:00.418Z,15.24
2023-04-22T08:06:02.155Z,15.26
2023-04-22T08:07:17.178Z,15.30
2023-04-22T08:08:26.904Z,15.34
2023-04-22T08:09:28.609Z,15.32
2023-04-22T08:10:30.397Z,15.35
2023-04-22T08:11:32.247Z,15.40
2023-04-22T08:12:34.055Z,15.45
2023-04-22T08:13:35.969Z,15.50
2023-04-22T08:14:37.747Z,15.54
2023-04-22T08:15:40.287Z,15.59
2023-04-22T08:16:43.083Z,15.63
2023-04-22T08:17:44.959Z,15.66
2023-04-22T08:18:46.831Z,15.66
2023-04-22T08:19:49.266Z,15.70
2023-04-22T08:20:52.419Z,15.77
2023-04-22T08:21:54.189Z,15.82
2023-04-22T08:23:00.572Z,15.83
2023-04-22T08:24:02.382Z,15.86
2023-04-22T08:25:04.318Z,15.87
2023-04-22T08:26:07.036Z,15.92
2023-04-22T08:27:08.855Z,15.95
2023-04-22T08:28:11.421Z,16.01
2023-04-22T08:29:13.459Z,15.99
2023-04-22T08:30:15.371Z,16.04
2023-04-22T08:31:18.184Z,16.07
2023-04-22T08:32:22.636Z,16.14
2023-04-22T08:33:26.650Z,16.20
2023-04-22T08:34:29.345Z,16.26
2023-04-22T08:35:31.720Z,16.29
2023-04-22T08:36:33.638Z,16.31
2023-04-22T08:37:35.487Z,16.31
2023-04-22T08:38:37.614Z,16.31
2023-04-22T08:39:39.639Z,16.34
2023-04-22T08:40:42.848Z,16.39
2023-04-22T08:41:46.105Z,16.46
2023-04-22T08:42:48.428Z,16.54
2023-04-22T08:43:50.867Z,16.58
2023-04-22T08:44:53.334Z,16.64
2023-04-22T08:45:56.831Z,16.70
2023-04-22T08:47:00.828Z,16.73
2023-04-22T08:48:04.778Z,16.77
2023-04-22T08:49:06.625Z,16.82
2023-04-22T08:50:09.956Z,16.86
2023-04-22T08:51:11.770Z,16.90
2023-04-22T08:52:15.730Z,16.91
2023-04-22T08:53:17.527Z,16.94
2023-04-22T08:54:19.291Z,16.98
2023-04-22T08:55:21.573Z,17.02
2023-04-22T08:56:25.128Z,17.08
2023-04-22T08:57:27.366Z,17.11
2023-04-22T08:58:31.156Z,17.13
2023-04-22T08:59:34.195Z,17.14
2023-04-22T09:00:36.515Z,17.14
2023-04-22T09:01:39.441Z,17.15
2023-04-22T09:02:45.231Z,17.18
2023-04-22T09:03:49.132Z,17.23
2023-04-22T09:04:52.018Z,17.31
2023-04-22T09:05:55.224Z,17.38
2023-04-22T09:06:57.276Z,17.41
2023-04-22T09:07:59.147Z,17.44
2023-04-22T09:09:01.632Z,17.49
2023-04-22T09:10:03.464Z,17.55
2023-04-22T09:11:05.421Z,17.58
2023-04-22T09:12:07.141Z,17.58
2023-04-22T09:13:10.540Z,17.62
2023-04-22T09:14:12.511Z,17.65
2023-04-22T09:15:14.270Z,17.70
2023-04-22T09:16:16.136Z,17.76
2023-04-22T09:17:18.997Z,17.83
2023-04-22T09:18:21.138Z,17.89
2023-04-22T09:19:24.434Z,17.93
2023-04-22T09:20:27.161Z,17.97
2023-04-22T09:21:29.262Z,17.98
2023-04-22T09:22:38.371Z,17.98
2023-04-22T09:23:54.126Z,17.99
2023-04-22T09:24:59.618Z,17.99
2023-04-22T09:26:01.579Z,18.06
2023-04-22T09:27:03.937Z,18.13
2023-04-22T09:28:05.748Z,18.19
2023-04-22T09:29:09.824Z,18.22
2023-04-22T09:30:11.765Z,18.24
2023-04-22T09:31:16.726Z,18.28
2023-04-22T09:32:18.873Z,18.30
2023-04-22T09:33:20.883Z,18.32
2023-04-22T09:34:22.729Z,18.34
2023-04-22T09:35:28.207Z,18.34
2023-04-22T09:36:30.572Z,18.36
2023-04-22T09:37:48.557Z,18.41
2023-04-22T09:38:55.654Z,18.43
2023-04-22T09:39:57.471Z,18.50
2023-04-22T09:40:59.269Z,18.56
2023-04-22T09:42:01.372Z,18.61
2023-04-22T09:43:06.158Z,18.66
2023-04-22T09:44:14.085Z,18.66
2023-04-22T09:45:25.308Z,18.73
2023-04-22T09:46:28.292Z,18.84
2023-04-22T09:47:35.557Z,18.94
2023-04-22T09:48:42.649Z,19.07
2023-04-22T09:49:48.113Z,19.11
2023-04-22T09:50:51.304Z,19.10
2023-04-22T09:51:56.924Z,19.14
2023-04-22T09:53:06.778Z,19.21
2023-04-22T09:54:11.761Z,19.30
2023-04-22T09:55:13.833Z,19.38
2023-04-22T09:56:15.678Z,19.39
2023-04-22T09:57:17.693Z,19.45
2023-04-22T09:58:21.152Z,19.49
2023-04-22T09:59:28.302Z,19.50
2023-04-22T10:00:30.920Z,19.57
2023-04-22T10:01:37.378Z,19.67
2023-04-22T10:02:39.304Z,19.70
2023-04-22T10:03:41.183Z,19.81
2023-04-22T10:04:43.109Z,19.88
2023-04-22T10:05:46.326Z,19.90
2023-04-22T10:06:48.986Z,19.98
2023-04-22T10:07:51.572Z,20.04
2023-04-22T10:08:53.524Z,20.18
2023-04-22T10:09:55.327Z,20.28
2023-04-22T10:10:57.209Z,20.36
2023-04-22T10:11:59.423Z,20.48
2023-04-22T10:13:01.703Z,20.54
2023-04-22T10:14:03.632Z,20.64
2023-04-22T10:15:06.705Z,20.74
2023-04-22T10:16:08.622Z,20.83
2023-04-22T10:17:11.046Z,20.97
2023-04-22T10:18:14.120Z,21.10
2023-04-22T10:19:18.259Z,21.23
2023-04-22T10:20:21.513Z,21.33
2023-04-22T10:21:26.365Z,21.44
2023-04-22T10:22:28.324Z,21.37
2023-04-22T10:23:32.663Z,21.42
2023-04-22T10:24:37.923Z,21.51
2023-04-22T10:25:40.409Z,21.62
2023-04-22T10:26:57.244Z,21.74
2023-04-22T10:28:03.535Z,21.83
2023-04-22T10:29:11.203Z,21.89
2023-04-22T10:30:27.058Z,21.95
2023-04-22T10:31:29.063Z,22.06
2023-04-22T10:32:32.121Z,22.14
2023-04-22T10:33:36.231Z,22.18
2023-04-22T10:34:39.334Z,22.24
2023-04-22T10:35:41.361Z,22.33
2023-04-22T10:37:01.808Z,22.42
2023-04-22T10:38:07.834Z,22.54
2023-04-22T10:39:09.571Z,22.64
2023-04-22T10:40:16.339Z,22.75
2023-04-22T10:41:22.657Z,22.81
2023-04-22T10:42:29.051Z,22.92
2023-04-22T10:43:55.734Z,23.00
2023-04-22T10:45:01.985Z,23.15
2023-04-22T10:46:03.864Z,23.25
2023-04-22T10:47:05.794Z,23.34
2023-04-22T10:48:07.640Z,23.47
2023-04-22T10:49:10.732Z,23.57
2023-04-22T10:50:12.388Z,23.70
2023-04-22T10:51:33.438Z,23.78
2023-04-22T10:52:35.276Z,23.86
2023-04-22T10:53:37.479Z,23.94
2023-04-22T10:54:39.320Z,24.04
2023-04-22T10:55:53.679Z,24.15
2023-04-22T10:57:09.016Z,24.28
2023-04-22T10:58:19.462Z,24.35
2023-04-22T10:59:21.319Z,24.40
2023-04-22T11:00:24.920Z,24.41
2023-04-22T11:01:30.057Z,24.45
2023-04-22T11:02:31.902Z,24.46
2023-04-22T11:03:33.847Z,24.32
2023-04-22T11:04:36.068Z,24.43
2023-04-22T11:05:39.256Z,24.57
2023-04-22T11:06:41.146Z,24.73
2023-04-22T11:07:43.015Z,24.68
2023-04-22T11:08:45.991Z,24.63
2023-04-22T11:09:50.818Z,24.77
2023-04-22T11:10:53.743Z,24.92
2023-04-22T11:12:15.480Z,25.04
2023-04-22T11:13:19.488Z,25.00
2023-04-22T11:14:21.971Z,25.03
2023-04-22T11:15:24.295Z,25.08
2023-04-22T11:16:26.165Z,25.19
2023-04-22T11:17:28.151Z,25.29
2023-04-22T11:18:30.165Z,25.44
2023-04-22T11:19:32.185Z,25.51
2023-04-22T11:20:34.158Z,25.58
2023-04-22T11:21:35.971Z,25.64
2023-04-22T11:22:38.446Z,25.71
2023-04-22T11:23:49.631Z,25.77
2023-04-22T11:24:58.218Z,25.96
2023-04-22T11:26:01.489Z,26.07
2023-04-22T11:27:03.314Z,26.12
2023-04-22T11:28:05.292Z,26.22
2023-04-22T11:29:07.102Z,26.40
2023-04-22T11:30:12.282Z,26.52
2023-04-22T11:31:15.361Z,26.47
2023-04-22T11:32:17.203Z,26.46
2023-04-22T11:33:19.868Z,26.22
2023-04-22T11:34:21.736Z,26.21
2023-04-22T11:35:24.998Z,26.30
2023-04-22T11:36:27.839Z,26.41
2023-04-22T11:37:29.731Z,26.54
2023-04-22T11:38:31.744Z,26.74
2023-04-22T11:39:43.576Z,26.94
2023-04-22T11:40:52.203Z,27.12
2023-04-22T11:41:53.994Z,27.16
2023-04-22T11:42:57.033Z,27.26
2023-04-22T11:44:00.548Z,27.24
2023-04-22T11:45:02.389Z,27.21
2023-04-22T11:46:05.525Z,27.25
2023-04-22T11:47:07.388Z,27.21
2023-04-22T11:48:10.129Z,27.27
2023-04-22T11:49:14.337Z,27.36
2023-04-22T11:50:16.729Z,27.53
2023-04-22T11:51:18.510Z,27.48
2023-04-22T11:52:21.265Z,27.42
2023-04-22T11:53:25.701Z,27.32
2023-04-22T11:54:33.496Z,27.48
2023-04-22T11:55:38.410Z,27.65
2023-04-22T11:56:40.271Z,27.76
2023-04-22T11:57:42.262Z,27.86
2023-04-22T11:58:44.048Z,27.84
2023-04-22T11:59:57.027Z,27.86
2023-04-22T12:00:59.633Z,27.92
2023-04-22T12:02:05.042Z,28.12
2023-04-22T12:03:15.256Z,28.26
2023-04-22T12:04:17.635Z,28.31
2023-04-22T12:05:19.553Z,28.24
2023-04-22T12:06:21.515Z,28.07
2023-04-22T12:07:23.682Z,27.90
2023-04-22T12:08:26.981Z,27.74
2023-04-22T12:09:28.792Z,27.74
2023-04-22T12:10:32.373Z,27.73
2023-04-22T12:11:34.204Z,27.80
2023-04-22T12:12:39.499Z,27.97
2023-04-22T12:13:42.949Z,28.02
2023-04-22T12:14:46.289Z,27.96
2023-04-22T12:15:48.610Z,28.05
2023-04-22T12:16:50.910Z,28.19
2023-04-22T12:17:53.309Z,28.29
2023-04-22T12:18:55.754Z,28.29
2023-04-22T12:19:58.857Z,28.28
2023-04-22T12:21:01.807Z,28.23
2023-04-22T12:22:03.767Z,28.16
2023-04-22T12:23:05.745Z,28.17
2023-04-22T12:24:13.240Z,27.62
2023-04-22T12:25:18.223Z,27.80
2023-04-22T12:26:22.123Z,27.96
2023-04-22T12:27:25.662Z,28.06
2023-04-22T12:28:27.421Z,28.16
2023-04-22T12:29:33.389Z,28.26
2023-04-22T12:30:35.357Z,28.28
2023-04-22T12:31:38.947Z,28.12
2023-04-22T12:32:41.057Z,28.01
2023-04-22T12:33:43.463Z,27.94
2023-04-22T12:34:45.510Z,28.12
2023-04-22T12:35:49.103Z,28.39
2023-04-22T12:36:50.985Z,28.44
2023-04-22T12:37:52.893Z,28.12
2023-04-22T12:38:54.736Z,27.89
2023-04-22T12:39:56.592Z,27.73
2023-04-22T12:40:58.923Z,27.89
2023-04-22T12:42:00.689Z,28.06
2023-04-22T12:43:06.236Z,28.27
2023-04-22T12:44:08.913Z,28.39
2023-04-22T12:45:11.124Z,28.59
2023-04-22T12:46:13.023Z,28.73
2023-04-22T12:47:15.522Z,28.82
2023-04-22T12:48:17.567Z,28.97
2023-04-22T12:49:19.373Z,28.88
2023-04-22T12:50:21.389Z,28.95
2023-04-22T12:51:23.224Z,29.11
2023-04-22T12:52:25.081Z,29.27
2023-04-22T12:53:27.796Z,29.20
2023-04-22T12:54:29.637Z,29.20
2023-04-22T12:55:31.661Z,28.97
2023-04-22T12:56:33.514Z,29.11
2023-04-22T12:57:35.422Z,29.06
2023-04-22T12:58:37.188Z,28.90
2023-04-22T12:59:39.253Z,28.78
2023-04-22T13:00:41.349Z,28.46
2023-04-22T13:01:43.194Z,28.47
2023-04-22T13:02:46.057Z,28.73
2023-04-22T13:03:48.272Z,28.69
2023-04-22T13:04:50.204Z,28.79
2023-04-22T13:05:52.576Z,28.92
2023-04-22T13:06:56.602Z,28.87
2023-04-22T13:08:06.582Z,28.81
2023-04-22T13:09:09.229Z,28.98
2023-04-22T13:10:12.602Z,29.15
2023-04-22T13:11:14.420Z,29.15
2023-04-22T13:12:16.475Z,29.08
2023-04-22T13:13:19.529Z,29.25
2023-04-22T13:14:21.536Z,29.14
2023-04-22T13:15:23.500Z,28.79
2023-04-22T13:16:25.312Z,28.74
2023-04-22T13:17:27.249Z,28.91
2023-04-22T13:18:29.140Z,28.91
2023-04-22T13:19:32.154Z,29.17
2023-04-22T13:20:34.898Z,29.05
2023-04-22T13:21:36.685Z,29.01
2023-04-22T13:22:38.941Z,29.22
2023-04-22T13:23:40.773Z,29.32
2023-04-22T13:24:42.577Z,29.46
2023-04-22T13:25:44.464Z,29.51
2023-04-22T13:26:46.563Z,29.58
2023-04-22T13:27:48.274Z,29.77
2023-04-22T13:28:50.450Z,29.75
2023-04-22T13:29:52.237Z,29.77
2023-04-22T13:30:54.864Z,29.78
2023-04-22T13:31:56.870Z,29.66
2023-04-22T13:32:58.808Z,29.62
2023-04-22T13:34:01.597Z,29.65
2023-04-22T13:35:03.622Z,29.52
2023-04-22T13:36:05.572Z,29.60
2023-04-22T13:37:07.454Z,29.79
2023-04-22T13:38:09.230Z,29.74
2023-04-22T13:39:11.771Z,29.78
2023-04-22T13:40:13.592Z,29.85